Time;durP1;ratioP1;P1;durP2;ratioP2;P2;SDS_P1;SDS_P2;PMS_P1;PMS_P2;Temp;Humidity;BMP_temperature;BMP_pressure;BME280_temperature;BME280_humidity;BME280_pressure;Samples;Min_cycle;Max_cycle;Signal;HPM_P1;HPM_P2
2023/09/06 00:00:32;;;;;;;4.80;3.55;;;;;;;;;;1034994;28;20022;-75
2023/09/06 00:01:06;;;;;;;6.15;3.88;;;;;;;;;;1035308;28;20010;-74
2023/09/06 00:01:36;;;;;;;4.75;3.65;;;;;;;;;;1035097;28;20932;-74
2023/09/06 00:02:07;;;;;;;5.38;3.80;;;;;;;;;;1035170;28;20253;-74
2023/09/06 00:02:37;;;;;;;9.38;3.80;;;;;;;;;;1035108;28;20064;-75
2023/09/06 00:03:08;;;;;;;5.43;3.80;;;;;;;;;;1035029;28;20494;-74
2023/09/06 00:03:39;;;;;;;5.65;3.80;;;;;;;;;;1035062;28;20467;-74
2023/09/06 00:04:10;;;;;;;8.73;4.15;;;;;;;;;;1035161;28;20022;-75
2023/09/06 00:04:41;;;;;;;6.60;3.55;;;;;;;;;;1030846;28;20029;-75
2023/09/06 00:05:12;;;;;;;4.20;3.28;;;;;;;;;;1031531;28;20050;-75
2023/09/06 00:05:42;;;;;;;8.60;3.92;;;;;;;;;;1031020;28;20833;-75
2023/09/06 00:06:12;;;;;;;6.13;3.60;;;;;;;;;;1019207;29;20028;-75
2023/09/06 00:06:43;;;;;;;8.70;3.80;;;;;;;;;;1023028;29;20030;-75
2023/09/06 00:07:13;;;;;;;7.22;4.10;;;;;;;;;;1022971;29;20026;-76
2023/09/06 00:07:44;;;;;;;5.88;3.33;;;;;;;;;;1019154;29;20024;-76
2023/09/06 00:08:16;;;;;;;7.35;3.80;;;;;;;;;;1028779;28;20049;-75
2023/09/06 00:11:33;;;;;;;6.13;3.25;;;;;;;;;;1027516;28;20309;-77
2023/09/06 00:12:04;;;;;;;7.97;3.90;;;;;;;;;;1016726;28;20033;-79
2023/09/06 00:12:34;;;;;;;6.80;3.60;;;;;;;;;;1022753;28;20023;-79
2023/09/06 00:13:07;;;;;;;5.75;3.75;;;;;;;;;;1026913;28;20023;-79
2023/09/06 00:13:37;;;;;;;5.38;3.65;;;;;;;;;;1026441;28;20513;-78
2023/09/06 00:14:07;;;;;;;7.22;3.92;;;;;;;;;;1023815;28;20294;-78
2023/09/06 00:14:39;;;;;;;4.97;3.85;;;;;;;;;;1022903;29;20012;-79
2023/09/06 00:15:09;;;;;;;5.03;3.67;;;;;;;;;;1024706;28;20087;-79
2023/09/06 00:15:40;;;;;;;4.22;3.42;;;;;;;;;;1027054;28;20270;-79
2023/09/06 00:16:10;;;;;;;5.85;4.07;;;;;;;;;;1026885;28;20110;-79
2023/09/06 00:16:41;;;;;;;7.57;3.53;;;;;;;;;;1022942;28;20562;-78
2023/09/06 00:17:11;;;;;;;4.03;3.47;;;;;;;;;;1024178;28;20519;-78
2023/09/06 00:17:41;;;;;;;5.00;3.45;;;;;;;;;;1023242;28;20027;-78
2023/09/06 00:18:12;;;;;;;5.18;3.35;;;;;;;;;;1027126;28;20611;-78
2023/09/06 00:18:42;;;;;;;6.38;4.00;;;;;;;;;;1022850;29;20190;-79
2023/09/06 00:19:14;;;;;;;5.28;3.60;;;;;;;;;;1026970;28;20018;-78
2023/09/06 00:19:45;;;;;;;5.85;3.70;;;;;;;;;;1023175;29;20165;-78
2023/09/06 00:20:21;;;;;;;5.95;4.00;;;;;;;;;;1019311;29;21538;-79
2023/09/06 00:20:53;;;;;;;4.65;3.00;;;;;;;;;;1015082;29;20058;-79
2023/09/06 00:21:24;;;;;;;10.65;4.68;;;;;;;;;;1026554;28;20258;-78
2023/09/06 00:21:54;;;;;;;6.78;3.85;;;;;;;;;;1023035;29;20263;-79
2023/09/06 00:22:24;;;;;;;4.53;3.72;;;;;;;;;;1019005;29;20020;-78
2023/09/06 00:22:58;;;;;;;6.47;3.88;;;;;;;;;;1015538;29;20036;-78
2023/09/06 00:23:29;;;;;;;8.00;3.80;;;;;;;;;;1022873;28;20043;-79
2023/09/06 00:24:00;;;;;;;5.05;3.75;;;;;;;;;;1027474;28;20266;-78
2023/09/06 00:24:31;;;;;;;4.70;3.40;;;;;;;;;;1028218;28;20262;-79
2023/09/06 00:25:01;;;;;;;7.03;3.40;;;;;;;;;;1026985;28;20093;-78
2023/09/06 00:25:32;;;;;;;9.50;4.35;;;;;;;;;;1026848;28;20050;-79
2023/09/06 00:26:02;;;;;;;7.57;3.90;;;;;;;;;;1018904;29;20185;-78
2023/09/06 00:26:32;;;;;;;6.18;3.40;;;;;;;;;;1018719;29;20074;-79
2023/09/06 00:27:04;;;;;;;6.45;3.33;;;;;;;;;;1018453;29;20008;-78
2023/09/06 00:27:35;;;;;;;9.00;4.43;;;;;;;;;;1014994;29;20016;-78
2023/09/06 00:28:06;;;;;;;15.25;4.22;;;;;;;;;;1018928;29;20759;-79
2023/09/06 00:28:36;;;;;;;15.27;5.05;;;;;;;;;;1018909;29;20027;-78
2023/09/06 00:29:07;;;;;;;10.05;3.65;;;;;;;;;;1022800;29;20833;-79
2023/09/06 00:29:37;;;;;;;9.43;3.47;;;;;;;;;;1019102;29;20503;-78
2023/09/06 00:30:08;;;;;;;8.68;4.15;;;;;;;;;;1014931;29;20492;-78
2023/09/06 00:30:38;;;;;;;6.10;3.85;;;;;;;;;;1015732;29;20030;-78
2023/09/06 00:31:08;;;;;;;6.78;4.50;;;;;;;;;;1018807;29;20060;-78
2023/09/06 00:31:38;;;;;;;7.70;5.07;;;;;;;;;;1018999;29;20015;-78
2023/09/06 00:32:10;;;;;;;7.22;3.65;;;;;;;;;;1018951;29;20048;-78
2023/09/06 00:32:41;;;;;;;6.90;4.18;;;;;;;;;;1018865;29;20655;-78
2023/09/06 00:33:11;;;;;;;8.88;3.55;;;;;;;;;;1012995;29;20024;-79
2023/09/06 00:33:42;;;;;;;7.57;4.35;;;;;;;;;;1015489;29;20035;-79
2023/09/06 00:34:14;;;;;;;12.13;3.58;;;;;;;;;;1018889;29;20519;-78
2023/09/06 00:34:45;;;;;;;9.05;4.65;;;;;;;;;;1015711;29;20016;-78
2023/09/06 00:35:16;;;;;;;8.40;3.67;;;;;;;;;;1022612;28;20779;-78
2023/09/06 00:35:47;;;;;;;9.88;4.20;;;;;;;;;;1019358;29;20023;-78
2023/09/06 00:36:17;;;;;;;5.35;3.97;;;;;;;;;;1020773;28;20271;-78
2023/09/06 00:36:48;;;;;;;4.93;3.75;;;;;;;;;;1018979;29;20260;-79
2023/09/06 00:37:18;;;;;;;5.97;3.75;;;;;;;;;;1021644;29;20019;-79
2023/09/06 00:37:48;;;;;;;7.18;4.07;;;;;;;;;;1022549;28;20067;-78
2023/09/06 00:38:19;;;;;;;6.53;3.30;;;;;;;;;;1014917;29;20609;-78
2023/09/06 00:38:49;;;;;;;6.97;3.55;;;;;;;;;;1015056;29;20020;-79
2023/09/06 00:39:19;;;;;;;6.28;3.65;;;;;;;;;;1022635;29;20082;-79
2023/09/06 00:39:50;;;;;;;4.57;3.70;;;;;;;;;;1018954;29;20126;-79
2023/09/06 00:40:23;;;;;;;10.63;4.50;;;;;;;;;;1018995;29;20023;-79
2023/09/06 00:40:53;;;;;;;6.70;4.43;;;;;;;;;;1015294;29;20087;-78
2023/09/06 00:41:24;;;;;;;5.18;3.85;;;;;;;;;;1019386;29;20712;-78
2023/09/06 00:41:54;;;;;;;9.57;4.00;;;;;;;;;;1019439;29;20020;-78
2023/09/06 00:42:26;;;;;;;6.15;3.65;;;;;;;;;;1026884;28;20058;-78
2023/09/06 00:42:59;;;;;;;5.10;3.95;;;;;;;;;;1022831;28;20602;-78
2023/09/06 00:43:30;;;;;;;5.35;3.45;;;;;;;;;;1023488;28;20074;-79
2023/09/06 00:44:00;;;;;;;7.80;3.10;;;;;;;;;;1015430;29;20863;-79
2023/09/06 00:44:31;;;;;;;5.75;3.72;;;;;;;;;;1014816;29;20020;-78
2023/09/06 00:45:01;;;;;;;5.85;3.60;;;;;;;;;;1011878;29;20021;-78
2023/09/06 00:45:42;;;;;;;4.40;3.20;;;;;;;;;;1015289;29;20520;-78
2023/09/06 00:46:12;;;;;;;7.70;3.83;;;;;;;;;;1024139;28;20019;-79
2023/09/06 00:46:42;;;;;;;5.25;3.60;;;;;;;;;;1028334;28;20789;-78
2023/09/06 00:47:12;;;;;;;6.07;3.72;;;;;;;;;;1025271;28;20016;-78
2023/09/06 00:47:44;;;;;;;6.70;4.15;;;;;;;;;;1018690;29;20024;-78
2023/09/06 00:48:16;;;;;;;6.50;3.85;;;;;;;;;;1013328;29;20017;-79
2023/09/06 00:48:50;;;;;;;5.38;3.75;;;;;;;;;;1019008;29;20255;-79
2023/09/06 00:49:20;;;;;;;5.68;4.38;;;;;;;;;;1022072;29;20361;-79
2023/09/06 00:49:50;;;;;;;6.57;3.97;;;;;;;;;;1022798;29;20797;-78
2023/09/06 00:50:20;;;;;;;5.18;3.92;;;;;;;;;;1021608;29;20023;-78
2023/09/06 00:50:52;;;;;;;5.53;3.33;;;;;;;;;;1018940;29;20126;-78
2023/09/06 00:51:23;;;;;;;5.82;4.07;;;;;;;;;;1018734;29;20011;-78
2023/09/06 00:51:53;;;;;;;6.82;3.65;;;;;;;;;;1011101;29;20336;-79
2023/09/06 00:52:23;;;;;;;5.53;3.80;;;;;;;;;;1018515;29;20012;-78
2023/09/06 00:52:54;;;;;;;5.70;3.97;;;;;;;;;;1018869;29;20103;-78
2023/09/06 00:53:24;;;;;;;8.35;3.63;;;;;;;;;;1018806;29;20022;-78
2023/09/06 00:53:54;;;;;;;6.15;3.75;;;;;;;;;;1022752;29;20423;-78
2023/09/06 00:54:25;;;;;;;6.13;3.40;;;;;;;;;;1022554;28;20011;-78
2023/09/06 00:54:55;;;;;;;5.65;3.58;;;;;;;;;;1015140;29;20387;-78
2023/09/06 00:55:26;;;;;;;5.25;3.78;;;;;;;;;;1022829;29;20011;-78
2023/09/06 00:55:59;;;;;;;7.30;3.38;;;;;;;;;;1022878;28;20634;-78
2023/09/06 00:56:29;;;;;;;7.35;4.00;;;;;;;;;;1026577;28;20122;-78
2023/09/06 00:56:59;;;;;;;6.45;3.55;;;;;;;;;;1027153;28;20258;-78
2023/09/06 00:57:30;;;;;;;7.88;3.83;;;;;;;;;;1026924;28;20011;-78
2023/09/06 00:58:00;;;;;;;9.45;4.00;;;;;;;;;;1016673;29;20035;-78
2023/09/06 00:58:32;;;;;;;8.35;3.65;;;;;;;;;;1010941;29;20012;-79
2023/09/06 00:59:02;;;;;;;8.82;3.95;;;;;;;;;;1011920;29;20021;-78
2023/09/06 00:59:32;;;;;;;10.25;4.15;;;;;;;;;;1014626;29;20665;-78
2023/09/06 01:00:06;;;;;;;10.95;4.15;;;;;;;;;;1018903;29;20015;-79
2023/09/06 01:00:36;;;;;;;10.88;4.10;;;;;;;;;;1019316;29;20020;-79
2023/09/06 01:01:08;;;;;;;7.55;4.00;;;;;;;;;;1018739;29;20769;-79
2023/09/06 01:01:38;;;;;;;9.27;4.15;;;;;;;;;;1015307;29;20020;-78
2023/09/06 01:02:08;;;;;;;7.55;4.32;;;;;;;;;;1012863;29;20245;-78
2023/09/06 01:02:39;;;;;;;9.93;4.00;;;;;;;;;;1019042;28;20091;-78
2023/09/06 01:03:09;;;;;;;6.97;4.50;;;;;;;;;;1026590;28;20015;-78
2023/09/06 01:03:40;;;;;;;10.90;4.13;;;;;;;;;;1022818;29;20530;-78
2023/09/06 01:04:10;;;;;;;8.95;4.32;;;;;;;;;;1024795;28;20046;-79
2023/09/06 01:04:41;;;;;;;5.90;4.07;;;;;;;;;;1022649;29;20092;-79
2023/09/06 01:05:12;;;;;;;9.40;3.80;;;;;;;;;;1022882;28;20451;-78
2023/09/06 01:05:46;;;;;;;9.07;3.85;;;;;;;;;;1026895;28;20582;-79
2023/09/06 01:06:26;;;;;;;9.27;4.10;;;;;;;;;;1024922;28;20254;-78
2023/09/06 01:06:57;;;;;;;8.75;4.00;;;;;;;;;;1020627;29;20247;-78
2023/09/06 01:07:28;;;;;;;7.97;3.60;;;;;;;;;;1014987;29;20264;-78
2023/09/06 01:07:59;;;;;;;5.60;3.90;;;;;;;;;;1016563;28;20126;-78
2023/09/06 01:08:39;;;;;;;5.43;3.80;;;;;;;;;;1022394;29;20019;-78
2023/09/06 01:09:10;;;;;;;9.73;4.10;;;;;;;;;;1014771;29;20263;-78
2023/09/06 01:09:40;;;;;;;6.63;4.22;;;;;;;;;;1018864;29;20027;-78
2023/09/06 01:10:10;;;;;;;6.95;3.67;;;;;;;;;;1018323;29;20748;-78
2023/09/06 01:10:41;;;;;;;5.35;3.60;;;;;;;;;;1021073;28;20024;-79
2023/09/06 01:11:21;;;;;;;6.78;4.18;;;;;;;;;;1021815;28;20518;-78
2023/09/06 01:11:51;;;;;;;5.05;3.85;;;;;;;;;;1017107;29;20411;-78
2023/09/06 01:12:22;;;;;;;7.25;4.20;;;;;;;;;;1014777;29;20031;-78
2023/09/06 01:12:54;;;;;;;4.82;3.67;;;;;;;;;;1014628;29;20083;-78
2023/09/06 01:13:25;;;;;;;9.65;3.88;;;;;;;;;;1014491;29;20012;-79
2023/09/06 01:13:59;;;;;;;8.32;3.88;;;;;;;;;;1015380;29;20264;-79
2023/09/06 01:14:54;;;;;;;5.97;4.18;;;;;;;;;;1015186;29;20512;-78
2023/09/06 01:15:25;;;;;;;9.85;4.20;;;;;;;;;;1021974;29;20779;-78
2023/09/06 01:15:56;;;;;;;5.78;3.50;;;;;;;;;;1011157;29;20348;-79
2023/09/06 01:16:30;;;;;;;8.90;3.72;;;;;;;;;;1023201;28;20019;-79
2023/09/06 01:17:00;;;;;;;11.43;4.10;;;;;;;;;;1019867;28;20295;-79
2023/09/06 01:17:31;;;;;;;5.65;3.70;;;;;;;;;;1023524;29;20390;-79
2023/09/06 01:18:02;;;;;;;9.25;4.95;;;;;;;;;;1015819;29;20020;-79
2023/09/06 01:18:32;;;;;;;5.90;3.97;;;;;;;;;;1017510;29;20623;-79
2023/09/06 01:19:02;;;;;;;11.80;4.20;;;;;;;;;;1016188;29;20263;-79
2023/09/06 01:19:33;;;;;;;10.30;5.30;;;;;;;;;;1015552;29;20029;-79
2023/09/06 01:20:15;;;;;;;8.60;3.83;;;;;;;;;;1016797;29;20025;-79
2023/09/06 01:20:53;;;;;;;5.28;3.80;;;;;;;;;;1018997;29;20008;-79
2023/09/06 01:21:27;;;;;;;8.45;4.50;;;;;;;;;;1022239;29;20263;-79
2023/09/06 01:22:07;;;;;;;5.65;3.97;;;;;;;;;;1022634;29;20254;-78
2023/09/06 01:22:38;;;;;;;5.72;3.50;;;;;;;;;;1015081;29;20256;-78
2023/09/06 01:23:27;;;;;;;8.63;4.38;;;;;;;;;;1016572;29;20099;-78
2023/09/06 01:23:57;;;;;;;9.63;3.70;;;;;;;;;;1018711;29;20315;-78
2023/09/06 01:24:29;;;;;;;6.00;3.88;;;;;;;;;;1023042;29;20251;-78
2023/09/06 01:24:59;;;;;;;6.50;4.13;;;;;;;;;;1025500;28;20038;-78
2023/09/06 01:25:29;;;;;;;7.07;3.90;;;;;;;;;;1018741;29;20346;-79
2023/09/06 01:26:00;;;;;;;4.68;3.75;;;;;;;;;;1019217;29;20098;-78
2023/09/06 01:26:32;;;;;;;6.78;4.13;;;;;;;;;;1018984;29;20548;-78
2023/09/06 01:27:03;;;;;;;9.02;4.45;;;;;;;;;;1019428;29;20028;-79
2023/09/06 01:27:33;;;;;;;6.22;3.95;;;;;;;;;;1023123;28;20790;-78
2023/09/06 01:28:04;;;;;;;6.47;4.28;;;;;;;;;;1018818;29;20028;-78
2023/09/06 01:28:34;;;;;;;7.22;4.10;;;;;;;;;;1022550;29;20487;-79
2023/09/06 01:29:04;;;;;;;5.78;3.97;;;;;;;;;;1022714;29;20054;-79
2023/09/06 01:29:35;;;;;;;5.95;3.90;;;;;;;;;;1022754;29;20535;-79
2023/09/06 01:30:07;;;;;;;5.55;4.05;;;;;;;;;;1016215;29;20020;-79
2023/09/06 01:30:37;;;;;;;5.50;4.03;;;;;;;;;;1022713;28;20487;-78
2023/09/06 01:31:07;;;;;;;4.80;3.60;;;;;;;;;;1018893;29;20302;-78
2023/09/06 01:31:37;;;;;;;7.50;3.88;;;;;;;;;;1018799;29;20031;-79
2023/09/06 01:32:08;;;;;;;6.25;3.40;;;;;;;;;;1014686;29;20032;-79
2023/09/06 01:32:40;;;;;;;5.40;3.88;;;;;;;;;;1010990;29;20492;-79
2023/09/06 01:33:11;;;;;;;5.65;4.05;;;;;;;;;;1016825;29;20036;-78
2023/09/06 01:33:41;;;;;;;6.00;3.58;;;;;;;;;;1015017;29;20249;-79
2023/09/06 01:34:11;;;;;;;8.45;3.60;;;;;;;;;;1013082;29;20428;-79
2023/09/06 01:34:41;;;;;;;5.07;3.78;;;;;;;;;;1015318;29;20075;-78
2023/09/06 01:35:15;;;;;;;6.00;4.22;;;;;;;;;;1017285;29;20024;-78
2023/09/06 01:35:45;;;;;;;5.45;3.88;;;;;;;;;;1022344;28;20752;-79
2023/09/06 01:36:15;;;;;;;6.40;3.90;;;;;;;;;;1018759;29;20594;-79
2023/09/06 01:36:46;;;;;;;5.68;3.78;;;;;;;;;;1019267;29;20082;-79
2023/09/06 01:37:16;;;;;;;5.47;3.63;;;;;;;;;;1017373;29;20035;-79
2023/09/06 01:37:50;;;;;;;6.55;3.90;;;;;;;;;;1014818;29;20024;-78
2023/09/06 01:38:20;;;;;;;5.75;3.55;;;;;;;;;;1015540;29;20115;-78
2023/09/06 01:38:53;;;;;;;5.10;3.97;;;;;;;;;;1015883;29;20613;-78
2023/09/06 01:39:23;;;;;;;4.53;3.50;;;;;;;;;;1018752;29;20028;-78
2023/09/06 01:39:54;;;;;;;6.45;4.03;;;;;;;;;;1019106;29;20241;-79
2023/09/06 01:40:26;;;;;;;8.75;3.63;;;;;;;;;;1019150;28;20023;-79
2023/09/06 01:40:56;;;;;;;6.85;4.18;;;;;;;;;;1023334;28;20122;-79
2023/09/06 01:41:27;;;;;;;7.53;3.83;;;;;;;;;;1018872;29;20264;-78
2023/09/06 01:41:57;;;;;;;8.85;3.83;;;;;;;;;;1014877;29;20475;-78
2023/09/06 01:42:27;;;;;;;5.03;3.70;;;;;;;;;;1018876;29;20343;-78
2023/09/06 01:42:58;;;;;;;14.50;3.78;;;;;;;;;;1019036;29;20031;-78
2023/09/06 01:43:30;;;;;;;9.23;4.43;;;;;;;;;;1018669;29;20052;-78
2023/09/06 01:44:01;;;;;;;6.18;4.03;;;;;;;;;;1014616;29;21061;-78
2023/09/06 01:44:31;;;;;;;5.20;3.75;;;;;;;;;;1014994;29;20263;-78
2023/09/06 01:45:02;;;;;;;5.82;3.90;;;;;;;;;;1015169;29;20107;-78
2023/09/06 01:45:32;;;;;;;6.68;3.80;;;;;;;;;;1019314;28;20012;-78
2023/09/06 01:46:02;;;;;;;5.85;3.70;;;;;;;;;;1019738;28;20020;-79
2023/09/06 01:46:33;;;;;;;5.88;4.13;;;;;;;;;;1018989;29;20026;-79
2023/09/06 01:47:03;;;;;;;5.82;3.63;;;;;;;;;;1018858;29;20047;-79
2023/09/06 01:47:34;;;;;;;6.25;4.32;;;;;;;;;;1014839;29;20031;-78
2023/09/06 01:48:04;;;;;;;5.57;3.75;;;;;;;;;;1018656;29;20060;-79
2023/09/06 01:48:36;;;;;;;7.63;4.55;;;;;;;;;;1018630;29;20043;-78
2023/09/06 01:49:08;;;;;;;5.57;3.92;;;;;;;;;;1016070;29;20016;-79
2023/09/06 01:49:39;;;;;;;6.50;3.72;;;;;;;;;;1019816;28;20323;-78
2023/09/06 01:50:09;;;;;;;7.20;3.97;;;;;;;;;;1018636;29;20391;-79
2023/09/06 01:50:41;;;;;;;6.22;4.13;;;;;;;;;;1018701;29;20399;-78
2023/09/06 01:51:13;;;;;;;5.45;3.72;;;;;;;;;;1014757;29;20020;-78
2023/09/06 01:51:43;;;;;;;6.72;3.90;;;;;;;;;;1014769;29;20268;-78
2023/09/06 01:52:13;;;;;;;4.78;3.55;;;;;;;;;;1017111;29;20276;-79
2023/09/06 01:52:44;;;;;;;5.93;4.22;;;;;;;;;;1018760;29;20011;-78
2023/09/06 01:53:14;;;;;;;6.47;4.00;;;;;;;;;;1014937;29;20568;-79
2023/09/06 01:53:44;;;;;;;5.50;3.88;;;;;;;;;;1018757;29;20119;-79
2023/09/06 01:54:15;;;;;;;5.97;4.00;;;;;;;;;;1018577;29;20020;-79
2023/09/06 01:54:46;;;;;;;6.20;4.03;;;;;;;;;;1018537;29;20570;-78
2023/09/06 01:55:16;;;;;;;6.78;4.35;;;;;;;;;;1021434;29;20024;-78
2023/09/06 01:55:47;;;;;;;6.57;3.90;;;;;;;;;;1022718;28;20022;-79
2023/09/06 01:56:17;;;;;;;4.75;3.75;;;;;;;;;;1021521;29;20019;-78
2023/09/06 01:56:47;;;;;;;6.90;4.07;;;;;;;;;;1014661;29;20054;-79
2023/09/06 01:57:17;;;;;;;6.75;4.10;;;;;;;;;;1026606;28;20813;-78
2023/09/06 01:57:48;;;;;;;5.50;3.90;;;;;;;;;;1022537;28;20007;-79
2023/09/06 01:58:18;;;;;;;5.82;3.95;;;;;;;;;;1018815;29;20033;-78
2023/09/06 01:58:53;;;;;;;5.78;3.88;;;;;;;;;;1014877;29;20024;-79
2023/09/06 01:59:24;;;;;;;6.20;3.90;;;;;;;;;;1022561;29;20050;-79
2023/09/06 01:59:54;;;;;;;8.75;4.50;;;;;;;;;;1018737;29;20798;-79
2023/09/06 02:00:28;;;;;;;8.38;4.20;;;;;;;;;;1018491;29;20024;-79
2023/09/06 02:00:59;;;;;;;8.77;3.95;;;;;;;;;;1018849;29;20127;-78
2023/09/06 02:01:30;;;;;;;5.57;3.72;;;;;;;;;;1018777;29;20358;-79
2023/09/06 02:02:01;;;;;;;7.18;4.18;;;;;;;;;;1019946;28;20318;-79
2023/09/06 02:02:31;;;;;;;7.65;4.25;;;;;;;;;;1023516;28;20330;-79
2023/09/06 02:03:01;;;;;;;5.53;3.72;;;;;;;;;;1022765;28;20023;-79
2023/09/06 02:03:33;;;;;;;6.28;4.25;;;;;;;;;;1030845;28;20097;-78
2023/09/06 02:04:05;;;;;;;6.03;3.75;;;;;;;;;;1026833;28;20022;-79
2023/09/06 02:04:37;;;;;;;5.25;4.20;;;;;;;;;;1019088;29;20394;-79
2023/09/06 02:05:07;;;;;;;7.35;4.47;;;;;;;;;;1014520;29;20272;-78
2023/09/06 02:05:39;;;;;;;12.68;4.70;;;;;;;;;;1018801;29;20776;-79
2023/09/06 02:06:09;;;;;;;5.53;4.15;;;;;;;;;;1016563;29;20067;-78
2023/09/06 02:06:40;;;;;;;7.03;4.38;;;;;;;;;;1018699;29;20279;-78
2023/09/06 02:07:10;;;;;;;6.93;4.53;;;;;;;;;;1018601;29;20035;-78
2023/09/06 02:07:40;;;;;;;7.10;4.38;;;;;;;;;;1018623;29;20035;-78
2023/09/06 02:08:12;;;;;;;5.28;4.03;;;;;;;;;;1018794;29;20222;-78
2023/09/06 02:08:42;;;;;;;5.85;3.97;;;;;;;;;;1022790;29;20024;-79
2023/09/06 02:09:13;;;;;;;8.00;4.57;;;;;;;;;;1018817;29;20255;-78
2023/09/06 02:09:43;;;;;;;10.32;4.30;;;;;;;;;;1013495;29;20019;-79
2023/09/06 02:10:13;;;;;;;6.32;4.20;;;;;;;;;;1014811;29;20036;-78
2023/09/06 02:10:44;;;;;;;5.88;4.20;;;;;;;;;;1018869;29;20491;-79
2023/09/06 02:11:14;;;;;;;6.32;4.43;;;;;;;;;;1017032;29;20114;-78
2023/09/06 02:11:45;;;;;;;7.65;4.60;;;;;;;;;;1014817;29;20462;-79
2023/09/06 02:12:16;;;;;;;7.97;4.40;;;;;;;;;;1021212;29;20021;-78
2023/09/06 02:12:46;;;;;;;5.60;4.35;;;;;;;;;;1022676;28;20059;-78
2023/09/06 02:13:17;;;;;;;6.72;4.90;;;;;;;;;;1018576;29;20404;-79
2023/09/06 02:13:47;;;;;;;6.82;4.60;;;;;;;;;;1018945;29;20012;-79
2023/09/06 02:14:17;;;;;;;6.40;4.90;;;;;;;;;;1018747;29;20016;-79
2023/09/06 02:14:48;;;;;;;8.70;4.68;;;;;;;;;;1013358;29;20040;-78
2023/09/06 02:15:18;;;;;;;7.88;4.97;;;;;;;;;;1027487;28;20552;-78
2023/09/06 02:15:48;;;;;;;7.25;5.10;;;;;;;;;;1014841;29;20020;-79
2023/09/06 02:16:19;;;;;;;8.75;5.00;;;;;;;;;;1018620;29;20441;-79
2023/09/06 02:16:50;;;;;;;8.70;4.65;;;;;;;;;;1018755;29;20551;-79
2023/09/06 02:17:20;;;;;;;7.05;4.70;;;;;;;;;;1017865;29;20022;-78
2023/09/06 02:17:51;;;;;;;9.05;5.30;;;;;;;;;;1018602;29;20582;-78
2023/09/06 02:18:21;;;;;;;6.95;4.82;;;;;;;;;;1018143;29;20511;-78
2023/09/06 02:18:52;;;;;;;7.47;4.72;;;;;;;;;;1018884;29;20099;-79
2023/09/06 02:19:22;;;;;;;6.80;4.22;;;;;;;;;;1022706;28;20020;-78
2023/09/06 02:19:52;;;;;;;14.27;5.13;;;;;;;;;;1026663;28;20023;-78
2023/09/06 02:20:24;;;;;;;10.98;4.68;;;;;;;;;;1023376;28;20019;-79
2023/09/06 02:20:55;;;;;;;6.85;4.50;;;;;;;;;;1022597;29;20535;-78
2023/09/06 02:28:48;;;;;;;6.40;4.40;;;;;;;;;;1044759;23;20320;-73
2023/09/06 02:29:18;;;;;;;7.10;4.35;;;;;;;;;;1039346;28;20307;-73
2023/09/06 02:29:51;;;;;;;7.35;4.95;;;;;;;;;;1039281;28;20255;-72
2023/09/06 02:30:21;;;;;;;11.60;4.95;;;;;;;;;;1038601;28;20013;-73
2023/09/06 02:30:52;;;;;;;7.25;4.88;;;;;;;;;;1035115;28;20285;-73
2023/09/06 02:31:22;;;;;;;8.35;5.43;;;;;;;;;;1030849;28;20018;-73
2023/09/06 02:31:52;;;;;;;7.57;4.78;;;;;;;;;;1031133;28;20018;-73
2023/09/06 02:32:24;;;;;;;11.63;4.95;;;;;;;;;;1027451;28;20017;-73
2023/09/06 02:32:55;;;;;;;7.68;5.20;;;;;;;;;;1023507;28;20122;-72
2023/09/06 02:33:27;;;;;;;7.20;4.70;;;;;;;;;;1023459;28;20251;-72
2023/09/06 02:33:57;;;;;;;8.38;4.93;;;;;;;;;;1026994;28;20640;-73
2023/09/06 02:34:27;;;;;;;6.78;4.82;;;;;;;;;;1023993;28;20247;-73
2023/09/06 02:34:58;;;;;;;10.65;5.25;;;;;;;;;;1023413;28;20161;-73
2023/09/06 02:35:28;;;;;;;7.63;5.18;;;;;;;;;;1029008;28;20039;-73
2023/09/06 02:35:58;;;;;;;7.22;5.13;;;;;;;;;;1031083;28;20032;-73
2023/09/06 02:36:29;;;;;;;8.23;5.00;;;;;;;;;;1023072;29;20034;-73
2023/09/06 02:36:59;;;;;;;8.02;5.13;;;;;;;;;;1031062;28;20538;-71
2023/09/06 02:37:29;;;;;;;7.18;4.97;;;;;;;;;;1023585;28;20012;-73
2023/09/06 02:38:00;;;;;;;7.78;5.00;;;;;;;;;;1027098;28;20011;-74
2023/09/06 02:38:31;;;;;;;7.38;5.10;;;;;;;;;;1023054;29;20106;-73
2023/09/06 02:39:01;;;;;;;6.25;4.57;;;;;;;;;;1023333;28;20654;-73
2023/09/06 02:39:32;;;;;;;9.10;4.88;;;;;;;;;;1031371;28;20015;-73
2023/09/06 02:40:08;;;;;;;7.10;5.28;;;;;;;;;;1034972;28;20049;-73
2023/09/06 02:40:42;;;;;;;7.22;4.85;;;;;;;;;;1034626;28;20280;-71
2023/09/06 02:41:12;;;;;;;8.40;5.50;;;;;;;;;;1035564;28;20695;-73
2023/09/06 02:41:42;;;;;;;7.30;4.60;;;;;;;;;;1034915;28;20257;-73
2023/09/06 02:42:13;;;;;;;10.70;4.82;;;;;;;;;;1035038;28;20038;-72
2023/09/06 02:42:44;;;;;;;8.30;5.25;;;;;;;;;;1035180;28;20481;-73
2023/09/06 02:43:14;;;;;;;8.63;5.03;;;;;;;;;;1027226;28;20015;-73
2023/09/06 02:43:44;;;;;;;8.80;4.53;;;;;;;;;;1031125;28;20027;-73
2023/09/06 02:44:16;;;;;;;5.32;4.25;;;;;;;;;;1027053;28;20281;-73
2023/09/06 02:44:46;;;;;;;11.55;4.95;;;;;;;;;;1019389;28;20032;-73
2023/09/06 02:45:17;;;;;;;8.35;5.38;;;;;;;;;;1023009;29;20282;-73
2023/09/06 02:45:49;;;;;;;7.68;5.05;;;;;;;;;;1025148;28;20023;-73
2023/09/06 02:46:19;;;;;;;10.27;4.93;;;;;;;;;;1027326;28;20074;-74
2023/09/06 02:46:53;;;;;;;7.45;5.22;;;;;;;;;;1027066;28;20732;-73
2023/09/06 02:47:25;;;;;;;7.70;4.32;;;;;;;;;;1026880;28;20105;-73
2023/09/06 02:47:55;;;;;;;8.32;5.20;;;;;;;;;;1027313;28;20260;-73
2023/09/06 02:48:27;;;;;;;9.25;4.95;;;;;;;;;;1023735;28;20263;-73
2023/09/06 02:49:01;;;;;;;6.72;4.80;;;;;;;;;;1023753;28;20030;-73
2023/09/06 02:49:32;;;;;;;8.45;4.95;;;;;;;;;;1027106;28;20266;-73
2023/09/06 02:50:05;;;;;;;6.85;4.72;;;;;;;;;;1027842;28;20254;-73
2023/09/06 02:50:36;;;;;;;6.97;5.10;;;;;;;;;;1027428;28;20081;-73
2023/09/06 02:51:08;;;;;;;10.95;5.25;;;;;;;;;;1022985;28;20305;-73
2023/09/06 02:51:46;;;;;;;8.63;4.75;;;;;;;;;;1019829;29;20032;-73
2023/09/06 02:52:28;;;;;;;8.63;4.88;;;;;;;;;;1024436;28;20251;-72
2023/09/06 02:53:01;;;;;;;6.72;4.93;;;;;;;;;;1028656;28;20253;-72
2023/09/06 02:53:32;;;;;;;7.72;5.13;;;;;;;;;;1034160;28;20257;-73
2023/09/06 02:54:03;;;;;;;7.60;4.93;;;;;;;;;;1031007;28;20841;-73
2023/09/06 02:54:33;;;;;;;9.52;5.38;;;;;;;;;;1026933;28;20324;-73
2023/09/06 02:55:05;;;;;;;9.40;5.57;;;;;;;;;;1023032;29;20035;-73
2023/09/06 02:55:35;;;;;;;7.55;5.25;;;;;;;;;;1019637;29;20022;-73
2023/09/06 02:56:06;;;;;;;7.97;5.57;;;;;;;;;;1021562;29;20307;-73
2023/09/06 02:56:39;;;;;;;8.02;5.40;;;;;;;;;;1023411;28;20058;-72
2023/09/06 02:57:14;;;;;;;6.88;4.97;;;;;;;;;;1015151;29;20028;-72
2023/09/06 02:57:44;;;;;;;6.97;5.00;;;;;;;;;;1018148;29;20276;-73
2023/09/06 02:58:18;;;;;;;7.28;5.15;;;;;;;;;;1019116;29;20335;-74
2023/09/06 02:58:48;;;;;;;7.28;5.65;;;;;;;;;;1021142;28;20051;-73
2023/09/06 02:59:19;;;;;;;7.35;5.00;;;;;;;;;;1027292;28;20254;-73
2023/09/06 02:59:51;;;;;;;7.03;5.28;;;;;;;;;;1023649;28;20153;-73
2023/09/06 03:00:25;;;;;;;7.85;5.18;;;;;;;;;;1022796;28;20294;-73
2023/09/06 03:00:58;;;;;;;6.57;4.95;;;;;;;;;;1027450;28;20337;-73
2023/09/06 03:01:30;;;;;;;8.80;5.22;;;;;;;;;;1029172;28;20264;-74
2023/09/06 03:02:05;;;;;;;7.50;5.40;;;;;;;;;;1031103;28;20638;-72
2023/09/06 03:02:35;;;;;;;7.90;5.30;;;;;;;;;;1027022;28;20661;-73
2023/09/06 03:03:05;;;;;;;7.90;5.20;;;;;;;;;;1019882;29;20346;-73
2023/09/06 03:03:36;;;;;;;6.18;4.68;;;;;;;;;;1023589;28;20086;-71
2023/09/06 03:04:06;;;;;;;8.73;5.57;;;;;;;;;;1022995;29;20025;-73
2023/09/06 03:04:37;;;;;;;6.90;4.95;;;;;;;;;;1025843;28;20456;-73
2023/09/06 03:05:09;;;;;;;8.07;4.93;;;;;;;;;;1032636;28;20018;-74
2023/09/06 03:05:43;;;;;;;7.82;4.53;;;;;;;;;;1027221;28;20309;-73
2023/09/06 03:06:17;;;;;;;6.63;5.32;;;;;;;;;;1023726;28;20273;-73
2023/09/06 03:06:48;;;;;;;7.72;4.85;;;;;;;;;;1019031;29;20252;-73
2023/09/06 03:07:19;;;;;;;8.25;5.22;;;;;;;;;;1022873;29;20329;-72
2023/09/06 03:07:49;;;;;;;6.80;5.20;;;;;;;;;;1024141;28;20510;-72
2023/09/06 03:08:19;;;;;;;7.95;5.65;;;;;;;;;;1023060;28;20066;-73
2023/09/06 03:08:51;;;;;;;8.50;5.38;;;;;;;;;;1023321;28;20106;-72
2023/09/06 03:09:29;;;;;;;8.52;5.07;;;;;;;;;;1031176;28;20018;-73
2023/09/06 03:09:59;;;;;;;9.02;5.38;;;;;;;;;;1032163;28;20808;-72
2023/09/06 03:10:33;;;;;;;10.07;5.45;;;;;;;;;;1034533;28;20263;-71
2023/09/06 03:11:05;;;;;;;7.90;5.38;;;;;;;;;;1030953;28;20481;-72
2023/09/06 03:11:36;;;;;;;13.68;5.35;;;;;;;;;;1027651;28;21027;-73
2023/09/06 03:12:12;;;;;;;9.48;5.40;;;;;;;;;;1030961;28;20304;-73
2023/09/06 03:12:43;;;;;;;9.45;5.55;;;;;;;;;;1028108;28;20502;-74
2023/09/06 03:13:15;;;;;;;9.75;5.75;;;;;;;;;;1031997;28;20249;-73
2023/09/06 03:13:45;;;;;;;10.13;5.97;;;;;;;;;;1034977;28;20245;-73
2023/09/06 03:14:17;;;;;;;8.85;5.75;;;;;;;;;;1027058;28;20262;-72
2023/09/06 03:14:50;;;;;;;8.48;6.07;;;;;;;;;;1026016;28;20028;-73
2023/09/06 03:15:22;;;;;;;8.57;5.78;;;;;;;;;;1031017;28;20308;-74
2023/09/06 03:15:53;;;;;;;7.53;5.68;;;;;;;;;;1027895;28;20750;-73
2023/09/06 03:16:23;;;;;;;9.07;5.72;;;;;;;;;;1029168;28;20301;-73
2023/09/06 03:16:53;;;;;;;8.20;5.63;;;;;;;;;;1027061;28;20406;-72
2023/09/06 03:17:24;;;;;;;7.65;5.22;;;;;;;;;;1027046;28;20027;-73
2023/09/06 03:17:58;;;;;;;8.30;5.78;;;;;;;;;;1026851;28;20394;-73
2023/09/06 03:18:29;;;;;;;8.05;6.53;;;;;;;;;;1023839;28;20469;-71